sensor_id;sensor_type;location;lat;lon;timestamp;temperature;humidity
8214;DHT22;4148;47.974;7.824;2023-08-30T00:02:04;13.30;1.00
8214;DHT22;4148;47.974;7.824;2023-08-30T00:04:32;13.30;1.00
8214;DHT22;4148;47.974;7.824;2023-08-30T00:07:00;13.20;1.00
8214;DHT22;4148;47.974;7.824;2023-08-30T00:09:29;13.20;1.00
8214;DHT22;4148;47.974;7.824;2023-08-30T00:11:57;13.40;1.00
8214;DHT22;4148;47.974;7.824;2023-08-30T00:14:25;13.40;1.00
8214;DHT22;4148;47.974;7.824;2023-08-30T00:16:53;13.40;1.00
8214;DHT22;4148;47.974;7.824;2023-08-30T00:19:21;13.50;1.00
8214;DHT22;4148;47.974;7.824;2023-08-30T00:21:49;13.40;1.00
8214;DHT22;4148;47.974;7.824;2023-08-30T00:24:18;13.40;1.00
8214;DHT22;4148;47.974;7.824;2023-08-30T00:26:47;13.30;1.00
8214;DHT22;4148;47.974;7.824;2023-08-30T00:29:15;13.30;1.00
8214;DHT22;4148;47.974;7.824;2023-08-30T00:31:42;13.40;1.00
8214;DHT22;4148;47.974;7.824;2023-08-30T00:34:11;13.30;1.00
8214;DHT22;4148;47.974;7.824;2023-08-30T00:36:39;13.20;1.00
8214;DHT22;4148;47.974;7.824;2023-08-30T00:39:07;13.10;1.00
8214;DHT22;4148;47.974;7.824;2023-08-30T00:41:36;13.10;1.00
8214;DHT22;4148;47.974;7.824;2023-08-30T00:44:05;13.00;1.00
8214;DHT22;4148;47.974;7.824;2023-08-30T00:46:33;13.00;1.00
8214;DHT22;4148;47.974;7.824;2023-08-30T00:49:01;12.90;1.00
8214;DHT22;4148;47.974;7.824;2023-08-30T00:51:30;12.90;1.00
8214;DHT22;4148;47.974;7.824;2023-08-30T00:53:58;12.90;1.00
8214;DHT22;4148;47.974;7.824;2023-08-30T00:56:27;12.90;1.00
8214;DHT22;4148;47.974;7.824;2023-08-30T00:58:55;13.10;1.00
8214;DHT22;4148;47.974;7.824;2023-08-30T01:01:25;13.20;1.00
8214;DHT22;4148;47.974;7.824;2023-08-30T01:03:53;13.20;1.00
8214;DHT22;4148;47.974;7.824;2023-08-30T01:06:21;13.20;1.00
8214;DHT22;4148;47.974;7.824;2023-08-30T01:08:49;13.20;1.00
8214;DHT22;4148;47.974;7.824;2023-08-30T01:11:21;13.30;1.00
8214;DHT22;4148;47.974;7.824;2023-08-30T01:13:56;13.40;1.00
8214;DHT22;4148;47.974;7.824;2023-08-30T01:16:27;13.50;1.00
8214;DHT22;4148;47.974;7.824;2023-08-30T01:18:56;13.60;1.00
8214;DHT22;4148;47.974;7.824;2023-08-30T01:21:32;13.50;1.00
8214;DHT22;4148;47.974;7.824;2023-08-30T01:24:04;13.50;1.00
8214;DHT22;4148;47.974;7.824;2023-08-30T01:26:41;13.50;1.00
8214;DHT22;4148;47.974;7.824;2023-08-30T01:29:13;13.30;1.00
8214;DHT22;4148;47.974;7.824;2023-08-30T01:31:44;13.20;1.00
8214;DHT22;4148;47.974;7.824;2023-08-30T01:34:13;13.20;1.00
8214;DHT22;4148;47.974;7.824;2023-08-30T01:36:42;13.10;1.00
8214;DHT22;4148;47.974;7.824;2023-08-30T01:39:13;13.10;1.00
8214;DHT22;4148;47.974;7.824;2023-08-30T01:41:42;12.80;1.00
8214;DHT22;4148;47.974;7.824;2023-08-30T01:44:12;12.70;1.00
8214;DHT22;4148;47.974;7.824;2023-08-30T01:46:45;12.60;1.70
8214;DHT22;4148;47.974;7.824;2023-08-30T01:49:14;12.50;9.00
8214;DHT22;4148;47.974;7.824;2023-08-30T01:51:42;12.50;19.80
8214;DHT22;4148;47.974;7.824;2023-08-30T01:54:13;12.80;1.00
8214;DHT22;4148;47.974;7.824;2023-08-30T01:56:45;12.70;1.00
8214;DHT22;4148;47.974;7.824;2023-08-30T01:59:14;12.60;1.00
8214;DHT22;4148;47.974;7.824;2023-08-30T02:01:42;12.50;1.00
8214;DHT22;4148;47.974;7.824;2023-08-30T02:04:10;12.50;1.00
8214;DHT22;4148;47.974;7.824;2023-08-30T02:06:42;12.40;5.30
8214;DHT22;4148;47.974;7.824;2023-08-30T02:09:18;12.40;6.90
8214;DHT22;4148;47.974;7.824;2023-08-30T02:11:49;12.50;1.00
8214;DHT22;4148;47.974;7.824;2023-08-30T02:14:20;12.50;5.30
8214;DHT22;4148;47.974;7.824;2023-08-30T02:16:49;12.50;2.50
8214;DHT22;4148;47.974;7.824;2023-08-30T02:19:17;12.50;1.00
8214;DHT22;4148;47.974;7.824;2023-08-30T02:21:47;12.60;1.00
8214;DHT22;4148;47.974;7.824;2023-08-30T02:24:15;12.60;1.00
8214;DHT22;4148;47.974;7.824;2023-08-30T02:26:43;12.60;1.00
8214;DHT22;4148;47.974;7.824;2023-08-30T02:29:11;12.70;1.00
8214;DHT22;4148;47.974;7.824;2023-08-30T02:31:41;12.80;1.00
8214;DHT22;4148;47.974;7.824;2023-08-30T02:34:09;12.70;1.00
8214;DHT22;4148;47.974;7.824;2023-08-30T02:36:37;12.60;1.00
8214;DHT22;4148;47.974;7.824;2023-08-30T02:39:05;12.50;1.00
8214;DHT22;4148;47.974;7.824;2023-08-30T02:41:32;12.70;1.00
8214;DHT22;4148;47.974;7.824;2023-08-30T02:44:00;12.70;1.00
8214;DHT22;4148;47.974;7.824;2023-08-30T02:46:28;12.70;1.00
8214;DHT22;4148;47.974;7.824;2023-08-30T02:48:57;12.60;1.00
8214;DHT22;4148;47.974;7.824;2023-08-30T02:51:25;12.60;1.00
8214;DHT22;4148;47.974;7.824;2023-08-30T02:53:53;12.60;1.00
8214;DHT22;4148;47.974;7.824;2023-08-30T02:56:21;12.60;1.00
8214;DHT22;4148;47.974;7.824;2023-08-30T02:58:49;12.50;1.00
8214;DHT22;4148;47.974;7.824;2023-08-30T03:01:17;12.60;1.00
8214;DHT22;4148;47.974;7.824;2023-08-30T03:03:45;12.50;1.00
8214;DHT22;4148;47.974;7.824;2023-08-30T03:06:15;12.30;1.00
8214;DHT22;4148;47.974;7.824;2023-08-30T03:08:43;12.30;1.00
8214;DHT22;4148;47.974;7.824;2023-08-30T03:11:11;12.30;1.00
8214;DHT22;4148;47.974;7.824;2023-08-30T03:13:40;12.20;6.10
8214;DHT22;4148;47.974;7.824;2023-08-30T03:16:11;12.30;1.00
8214;DHT22;4148;47.974;7.824;2023-08-30T03:18:40;12.40;1.00
8214;DHT22;4148;47.974;7.824;2023-08-30T03:21:08;12.30;1.00
8214;DHT22;4148;47.974;7.824;2023-08-30T03:23:38;12.30;1.00
8214;DHT22;4148;47.974;7.824;2023-08-30T03:26:09;12.20;1.00
8214;DHT22;4148;47.974;7.824;2023-08-30T03:28:37;12.20;1.00
8214;DHT22;4148;47.974;7.824;2023-08-30T03:31:11;12.20;9.00
8214;DHT22;4148;47.974;7.824;2023-08-30T03:33:40;12.40;1.00
8214;DHT22;4148;47.974;7.824;2023-08-30T03:36:12;12.20;1.00
8214;DHT22;4148;47.974;7.824;2023-08-30T03:38:42;12.10;1.00
8214;DHT22;4148;47.974;7.824;2023-08-30T03:41:11;12.00;1.00
8214;DHT22;4148;47.974;7.824;2023-08-30T03:43:39;12.10;6.40
8214;DHT22;4148;47.974;7.824;2023-08-30T03:46:07;12.10;1.00
8214;DHT22;4148;47.974;7.824;2023-08-30T03:48:36;12.00;4.80
8214;DHT22;4148;47.974;7.824;2023-08-30T03:51:04;12.00;15.40
8214;DHT22;4148;47.974;7.824;2023-08-30T03:53:32;12.20;1.00
8214;DHT22;4148;47.974;7.824;2023-08-30T03:56:01;12.20;1.00
8214;DHT22;4148;47.974;7.824;2023-08-30T03:58:30;12.10;1.00
8214;DHT22;4148;47.974;7.824;2023-08-30T04:00:58;12.00;1.00
8214;DHT22;4148;47.974;7.824;2023-08-30T04:03:26;12.10;1.00
8214;DHT22;4148;47.974;7.824;2023-08-30T04:05:57;12.00;9.20
8214;DHT22;4148;47.974;7.824;2023-08-30T04:08:25;12.00;1.00
8214;DHT22;4148;47.974;7.824;2023-08-30T04:10:53;11.90;1.00
8214;DHT22;4148;47.974;7.824;2023-08-30T04:13:22;11.90;2.50
8214;DHT22;4148;47.974;7.824;2023-08-30T04:15:51;12.00;8.40
8214;DHT22;4148;47.974;7.824;2023-08-30T04:18:19;12.10;9.40
8214;DHT22;4148;47.974;7.824;2023-08-30T04:20:47;12.20;8.30
8214;DHT22;4148;47.974;7.824;2023-08-30T04:23:15;12.30;1.00
8214;DHT22;4148;47.974;7.824;2023-08-30T04:25:44;12.20;8.50
8214;DHT22;4148;47.974;7.824;2023-08-30T04:28:12;12.30;1.00
8214;DHT22;4148;47.974;7.824;2023-08-30T04:30:41;12.30;1.00
8214;DHT22;4148;47.974;7.824;2023-08-30T04:33:09;12.50;3.00
8214;DHT22;4148;47.974;7.824;2023-08-30T04:35:37;12.60;1.00
8214;DHT22;4148;47.974;7.824;2023-08-30T04:38:05;12.50;1.00
8214;DHT22;4148;47.974;7.824;2023-08-30T04:40:34;12.50;1.00
8214;DHT22;4148;47.974;7.824;2023-08-30T04:43:02;12.70;1.00
8214;DHT22;4148;47.974;7.824;2023-08-30T04:45:30;12.80;1.00
8214;DHT22;4148;47.974;7.824;2023-08-30T04:47:59;12.70;1.00
8214;DHT22;4148;47.974;7.824;2023-08-30T04:50:27;12.60;1.00
8214;DHT22;4148;47.974;7.824;2023-08-30T04:52:55;12.40;1.00
8214;DHT22;4148;47.974;7.824;2023-08-30T04:55:27;12.40;1.00
8214;DHT22;4148;47.974;7.824;2023-08-30T04:57:56;12.30;1.00
8214;DHT22;4148;47.974;7.824;2023-08-30T05:00:24;12.20;3.90
8214;DHT22;4148;47.974;7.824;2023-08-30T05:02:52;12.40;9.90
8214;DHT22;4148;47.974;7.824;2023-08-30T05:05:21;12.40;1.50
8214;DHT22;4148;47.974;7.824;2023-08-30T05:07:49;12.30;3.30
8214;DHT22;4148;47.974;7.824;2023-08-30T05:10:17;12.20;14.00
8214;DHT22;4148;47.974;7.824;2023-08-30T05:12:45;12.40;12.10
8214;DHT22;4148;47.974;7.824;2023-08-30T05:15:18;12.40;18.20
8214;DHT22;4148;47.974;7.824;2023-08-30T05:17:46;12.30;13.50
8214;DHT22;4148;47.974;7.824;2023-08-30T05:20:14;12.40;19.50
8214;DHT22;4148;47.974;7.824;2023-08-30T05:22:43;12.50;12.20
8214;DHT22;4148;47.974;7.824;2023-08-30T05:25:11;12.50;13.90
8214;DHT22;4148;47.974;7.824;2023-08-30T05:27:39;12.60;1.00
8214;DHT22;4148;47.974;7.824;2023-08-30T05:30:07;12.60;1.00
8214;DHT22;4148;47.974;7.824;2023-08-30T05:32:35;12.60;1.00
8214;DHT22;4148;47.974;7.824;2023-08-30T05:35:04;12.60;6.20
8214;DHT22;4148;47.974;7.824;2023-08-30T05:37:32;12.60;11.40
8214;DHT22;4148;47.974;7.824;2023-08-30T05:40:01;12.60;15.80
8214;DHT22;4148;47.974;7.824;2023-08-30T05:42:30;12.60;11.40
8214;DHT22;4148;47.974;7.824;2023-08-30T05:44:58;12.70;1.00
8214;DHT22;4148;47.974;7.824;2023-08-30T05:47:26;12.70;1.00
8214;DHT22;4148;47.974;7.824;2023-08-30T05:49:54;12.80;2.70
8214;DHT22;4148;47.974;7.824;2023-08-30T05:52:21;12.70;1.00
8214;DHT22;4148;47.974;7.824;2023-08-30T05:54:51;12.80;5.90
8214;DHT22;4148;47.974;7.824;2023-08-30T05:57:20;12.90;1.00
8214;DHT22;4148;47.974;7.824;2023-08-30T05:59:49;13.10;1.00
8214;DHT22;4148;47.974;7.824;2023-08-30T06:02:17;13.40;1.00
8214;DHT22;4148;47.974;7.824;2023-08-30T06:04:44;13.40;1.00
8214;DHT22;4148;47.974;7.824;2023-08-30T06:07:12;13.50;1.00
8214;DHT22;4148;47.974;7.824;2023-08-30T06:09:40;13.80;1.00
8214;DHT22;4148;47.974;7.824;2023-08-30T06:12:08;13.70;1.00
8214;DHT22;4148;47.974;7.824;2023-08-30T06:14:37;13.80;1.00
8214;DHT22;4148;47.974;7.824;2023-08-30T06:17:05;13.90;1.00
8214;DHT22;4148;47.974;7.824;2023-08-30T06:19:33;13.90;1.00
8214;DHT22;4148;47.974;7.824;2023-08-30T06:22:01;14.00;1.00
8214;DHT22;4148;47.974;7.824;2023-08-30T06:24:29;14.10;1.00
8214;DHT22;4148;47.974;7.824;2023-08-30T06:26:57;14.20;1.00
8214;DHT22;4148;47.974;7.824;2023-08-30T06:29:26;14.30;1.00
8214;DHT22;4148;47.974;7.824;2023-08-30T06:31:55;14.30;1.00
8214;DHT22;4148;47.974;7.824;2023-08-30T06:34:23;14.30;1.00
8214;DHT22;4148;47.974;7.824;2023-08-30T06:36:51;14.40;1.00
8214;DHT22;4148;47.974;7.824;2023-08-30T06:39:19;14.20;1.00
8214;DHT22;4148;47.974;7.824;2023-08-30T06:41:47;14.30;1.00
8214;DHT22;4148;47.974;7.824;2023-08-30T06:44:15;14.30;99.90
8214;DHT22;4148;47.974;7.824;2023-08-30T06:46:43;14.30;99.90
8214;DHT22;4148;47.974;7.824;2023-08-30T06:49:12;14.30;99.90
8214;DHT22;4148;47.974;7.824;2023-08-30T06:51:40;14.30;1.00
8214;DHT22;4148;47.974;7.824;2023-08-30T06:54:08;14.30;1.00
8214;DHT22;4148;47.974;7.824;2023-08-30T06:56:36;14.30;1.00
8214;DHT22;4148;47.974;7.824;2023-08-30T06:59:04;14.30;1.00
8214;DHT22;4148;47.974;7.824;2023-08-30T07:01:32;14.50;1.00
8214;DHT22;4148;47.974;7.824;2023-08-30T07:04:02;14.60;1.00
8214;DHT22;4148;47.974;7.824;2023-08-30T07:06:32;14.80;1.00
8214;DHT22;4148;47.974;7.824;2023-08-30T07:08:59;14.90;1.00
8214;DHT22;4148;47.974;7.824;2023-08-30T07:11:27;14.90;1.00
8214;DHT22;4148;47.974;7.824;2023-08-30T07:14:00;15.00;99.90
8214;DHT22;4148;47.974;7.824;2023-08-30T07:16:28;14.80;99.90
8214;DHT22;4148;47.974;7.824;2023-08-30T07:18:58;14.90;99.90
8214;DHT22;4148;47.974;7.824;2023-08-30T07:21:26;15.10;99.90
8214;DHT22;4148;47.974;7.824;2023-08-30T07:23:56;15.10;99.90
8214;DHT22;4148;47.974;7.824;2023-08-30T07:26:24;15.20;52.40
8214;DHT22;4148;47.974;7.824;2023-08-30T07:28:51;15.20;93.50
8214;DHT22;4148;47.974;7.824;2023-08-30T07:31:19;15.20;99.90
8214;DHT22;4148;47.974;7.824;2023-08-30T07:33:48;15.40;99.90
8214;DHT22;4148;47.974;7.824;2023-08-30T07:36:16;15.50;99.90
8214;DHT22;4148;47.974;7.824;2023-08-30T07:38:44;15.60;99.90
8214;DHT22;4148;47.974;7.824;2023-08-30T07:41:13;15.60;1.00
8214;DHT22;4148;47.974;7.824;2023-08-30T07:43:41;15.70;32.80
8214;DHT22;4148;47.974;7.824;2023-08-30T07:46:09;15.90;99.90
8214;DHT22;4148;47.974;7.824;2023-08-30T07:48:37;16.00;99.90
8214;DHT22;4148;47.974;7.824;2023-08-30T07:51:05;16.20;99.90
8214;DHT22;4148;47.974;7.824;2023-08-30T07:53:33;16.50;1.00
8214;DHT22;4148;47.974;7.824;2023-08-30T07:56:01;16.70;99.90
8214;DHT22;4148;47.974;7.824;2023-08-30T07:58:30;16.90;99.90
8214;DHT22;4148;47.974;7.824;2023-08-30T08:00:58;17.00;99.90
8214;DHT22;4148;47.974;7.824;2023-08-30T08:03:26;17.10;1.00
8214;DHT22;4148;47.974;7.824;2023-08-30T08:05:54;17.20;1.00
8214;DHT22;4148;47.974;7.824;2023-08-30T08:08:22;17.30;1.00
8214;DHT22;4148;47.974;7.824;2023-08-30T08:10:50;17.30;99.90
8214;DHT22;4148;47.974;7.824;2023-08-30T08:13:18;17.30;1.00
8214;DHT22;4148;47.974;7.824;2023-08-30T08:15:47;17.40;1.00
8214;DHT22;4148;47.974;7.824;2023-08-30T08:18:15;17.40;99.90
8214;DHT22;4148;47.974;7.824;2023-08-30T08:20:43;17.50;99.90
8214;DHT22;4148;47.974;7.824;2023-08-30T08:23:11;17.70;1.00
8214;DHT22;4148;47.974;7.824;2023-08-30T08:25:39;17.90;1.00
8214;DHT22;4148;47.974;7.824;2023-08-30T08:28:06;18.00;99.90
8214;DHT22;4148;47.974;7.824;2023-08-30T08:30:36;18.10;1.00
8214;DHT22;4148;47.974;7.824;2023-08-30T08:33:05;18.10;1.00
8214;DHT22;4148;47.974;7.824;2023-08-30T08:35:34;18.10;99.90
8214;DHT22;4148;47.974;7.824;2023-08-30T08:38:02;18.10;99.90
8214;DHT22;4148;47.974;7.824;2023-08-30T08:40:36;18.10;1.00
8214;DHT22;4148;47.974;7.824;2023-08-30T08:43:10;18.20;1.00
8214;DHT22;4148;47.974;7.824;2023-08-30T08:45:39;18.30;99.90
8214;DHT22;4148;47.974;7.824;2023-08-30T08:48:08;18.50;1.00
8214;DHT22;4148;47.974;7.824;2023-08-30T08:50:37;18.90;1.00
8214;DHT22;4148;47.974;7.824;2023-08-30T08:53:06;19.00;1.00
8214;DHT22;4148;47.974;7.824;2023-08-30T08:55:35;19.30;99.90
8214;DHT22;4148;47.974;7.824;2023-08-30T08:58:04;19.50;1.00
8214;DHT22;4148;47.974;7.824;2023-08-30T09:00:32;19.60;1.00
8214;DHT22;4148;47.974;7.824;2023-08-30T09:03:01;19.70;99.90
8214;DHT22;4148;47.974;7.824;2023-08-30T09:05:33;19.80;1.00
8214;DHT22;4148;47.974;7.824;2023-08-30T09:08:02;19.80;99.90
8214;DHT22;4148;47.974;7.824;2023-08-30T09:10:31;19.70;99.90
8214;DHT22;4148;47.974;7.824;2023-08-30T09:12:59;19.60;99.90
8214;DHT22;4148;47.974;7.824;2023-08-30T09:15:31;19.60;99.90
8214;DHT22;4148;47.974;7.824;2023-08-30T09:17:59;19.50;1.00
8214;DHT22;4148;47.974;7.824;2023-08-30T09:20:27;19.40;99.90
8214;DHT22;4148;47.974;7.824;2023-08-30T09:22:56;19.40;99.90
8214;DHT22;4148;47.974;7.824;2023-08-30T09:25:25;19.30;14.00
8214;DHT22;4148;47.974;7.824;2023-08-30T09:27:57;19.30;1.00
8214;DHT22;4148;47.974;7.824;2023-08-30T09:30:26;19.40;1.00
8214;DHT22;4148;47.974;7.824;2023-08-30T09:32:54;19.30;99.90
8214;DHT22;4148;47.974;7.824;2023-08-30T09:35:22;19.40;1.00
8214;DHT22;4148;47.974;7.824;2023-08-30T09:37:50;19.70;99.90
8214;DHT22;4148;47.974;7.824;2023-08-30T09:40:20;20.00;1.00
8214;DHT22;4148;47.974;7.824;2023-08-30T09:42:48;20.20;1.00
8214;DHT22;4148;47.974;7.824;2023-08-30T09:45:36;20.40;1.00
8214;DHT22;4148;47.974;7.824;2023-08-30T09:48:06;20.60;99.90
8214;DHT22;4148;47.974;7.824;2023-08-30T09:50:35;20.70;99.90
8214;DHT22;4148;47.974;7.824;2023-08-30T09:53:07;20.80;99.90
8214;DHT22;4148;47.974;7.824;2023-08-30T09:55:38;20.90;99.90
8214;DHT22;4148;47.974;7.824;2023-08-30T09:58:07;20.80;99.90
8214;DHT22;4148;47.974;7.824;2023-08-30T10:00:35;20.80;99.90
8214;DHT22;4148;47.974;7.824;2023-08-30T10:03:04;21.00;99.90
8214;DHT22;4148;47.974;7.824;2023-08-30T10:05:36;21.10;99.90
8214;DHT22;4148;47.974;7.824;2023-08-30T10:08:06;21.00;99.90
8214;DHT22;4148;47.974;7.824;2023-08-30T10:10:35;20.90;93.50
8214;DHT22;4148;47.974;7.824;2023-08-30T10:13:05;20.90;99.90
8214;DHT22;4148;47.974;7.824;2023-08-30T10:15:42;20.90;99.90
8214;DHT22;4148;47.974;7.824;2023-08-30T10:18:11;21.00;99.90
8214;DHT22;4148;47.974;7.824;2023-08-30T10:20:43;21.10;99.90
8214;DHT22;4148;47.974;7.824;2023-08-30T10:23:12;21.30;91.40
8214;DHT22;4148;47.974;7.824;2023-08-30T10:25:41;21.50;4.20
8214;DHT22;4148;47.974;7.824;2023-08-30T10:28:11;21.70;9.30
8214;DHT22;4148;47.974;7.824;2023-08-30T10:30:39;21.70;1.00
8214;DHT22;4148;47.974;7.824;2023-08-30T10:33:12;21.70;1.00
8214;DHT22;4148;47.974;7.824;2023-08-30T10:35:47;21.90;1.00
8214;DHT22;4148;47.974;7.824;2023-08-30T10:38:25;22.00;1.00
8214;DHT22;4148;47.974;7.824;2023-08-30T10:40:53;21.90;1.00
8214;DHT22;4148;47.974;7.824;2023-08-30T10:43:31;21.90;1.00
8214;DHT22;4148;47.974;7.824;2023-08-30T10:46:02;21.90;1.00
8214;DHT22;4148;47.974;7.824;2023-08-30T10:48:34;22.20;1.00
8214;DHT22;4148;47.974;7.824;2023-08-30T10:51:04;22.30;1.00
8214;DHT22;4148;47.974;7.824;2023-08-30T10:53:32;22.60;1.00
8214;DHT22;4148;47.974;7.824;2023-08-30T10:56:03;22.90;1.00
8214;DHT22;4148;47.974;7.824;2023-08-30T10:58:42;23.10;1.00
8214;DHT22;4148;47.974;7.824;2023-08-30T11:01:11;23.50;1.00
8214;DHT22;4148;47.974;7.824;2023-08-30T11:03:41;23.80;1.00
8214;DHT22;4148;47.974;7.824;2023-08-30T11:06:13;23.80;1.00
8214;DHT22;4148;47.974;7.824;2023-08-30T11:08:42;23.80;1.00
8214;DHT22;4148;47.974;7.824;2023-08-30T11:11:11;24.00;1.00
8214;DHT22;4148;47.974;7.824;2023-08-30T11:13:42;24.40;1.00
8214;DHT22;4148;47.974;7.824;2023-08-30T11:16:10;24.40;1.00
8214;DHT22;4148;47.974;7.824;2023-08-30T11:18:39;24.50;1.00
8214;DHT22;4148;47.974;7.824;2023-08-30T11:21:08;24.70;1.00
8214;DHT22;4148;47.974;7.824;2023-08-30T11:23:36;24.60;1.00
8214;DHT22;4148;47.974;7.824;2023-08-30T11:26:04;24.60;1.00
8214;DHT22;4148;47.974;7.824;2023-08-30T11:28:32;24.10;1.00
8214;DHT22;4148;47.974;7.824;2023-08-30T11:31:01;24.00;99.90
8214;DHT22;4148;47.974;7.824;2023-08-30T11:33:29;23.70;99.90
8214;DHT22;4148;47.974;7.824;2023-08-30T11:35:58;23.30;1.00
8214;DHT22;4148;47.974;7.824;2023-08-30T11:38:27;22.70;99.90
8214;DHT22;4148;47.974;7.824;2023-08-30T11:40:55;22.50;99.90
8214;DHT22;4148;47.974;7.824;2023-08-30T11:43:24;22.00;1.00
8214;DHT22;4148;47.974;7.824;2023-08-30T11:45:56;21.70;1.00
8214;DHT22;4148;47.974;7.824;2023-08-30T11:48:26;21.50;1.00
8214;DHT22;4148;47.974;7.824;2023-08-30T11:50:55;21.80;1.00
8214;DHT22;4148;47.974;7.824;2023-08-30T11:53:23;22.20;1.00
8214;DHT22;4148;47.974;7.824;2023-08-30T11:55:51;22.70;1.00
8214;DHT22;4148;47.974;7.824;2023-08-30T11:58:19;23.10;1.00
8214;DHT22;4148;47.974;7.824;2023-08-30T12:00:49;23.10;1.00
8214;DHT22;4148;47.974;7.824;2023-08-30T12:03:18;22.80;99.90
8214;DHT22;4148;47.974;7.824;2023-08-30T12:05:48;22.40;99.90
8214;DHT22;4148;47.974;7.824;2023-08-30T12:08:19;22.20;99.90
8214;DHT22;4148;47.974;7.824;2023-08-30T12:10:47;22.20;99.90
8214;DHT22;4148;47.974;7.824;2023-08-30T12:13:22;22.00;1.00
8214;DHT22;4148;47.974;7.824;2023-08-30T12:15:50;22.00;1.00
8214;DHT22;4148;47.974;7.824;2023-08-30T12:18:21;22.00;1.00
8214;DHT22;4148;47.974;7.824;2023-08-30T12:20:55;22.10;99.90
8214;DHT22;4148;47.974;7.824;2023-08-30T12:23:24;22.30;1.00
8214;DHT22;4148;47.974;7.824;2023-08-30T12:25:59;22.40;1.00
8214;DHT22;4148;47.974;7.824;2023-08-30T12:28:28;22.60;99.90
8214;DHT22;4148;47.974;7.824;2023-08-30T12:30:57;22.60;99.90
8214;DHT22;4148;47.974;7.824;2023-08-30T12:33:27;22.40;99.90
8214;DHT22;4148;47.974;7.824;2023-08-30T12:35:57;22.50;99.90
8214;DHT22;4148;47.974;7.824;2023-08-30T12:38:25;22.60;99.90
8214;DHT22;4148;47.974;7.824;2023-08-30T12:40:54;22.50;99.90
8214;DHT22;4148;47.974;7.824;2023-08-30T12:43:23;22.30;99.90
8214;DHT22;4148;47.974;7.824;2023-08-30T12:45:51;22.20;99.90
8214;DHT22;4148;47.974;7.824;2023-08-30T12:48:19;22.10;99.90
8214;DHT22;4148;47.974;7.824;2023-08-30T12:50:47;22.30;99.90
8214;DHT22;4148;47.974;7.824;2023-08-30T12:53:16;22.20;99.90
8214;DHT22;4148;47.974;7.824;2023-08-30T12:55:45;22.30;99.90
8214;DHT22;4148;47.974;7.824;2023-08-30T12:58:13;22.20;99.90
8214;DHT22;4148;47.974;7.824;2023-08-30T13:00:41;22.00;99.90
8214;DHT22;4148;47.974;7.824;2023-08-30T13:03:09;21.80;99.90
8214;DHT22;4148;47.974;7.824;2023-08-30T13:05:37;21.70;99.90
8214;DHT22;4148;47.974;7.824;2023-08-30T13:08:05;21.60;99.90
8214;DHT22;4148;47.974;7.824;2023-08-30T13:10:35;21.50;99.90
8214;DHT22;4148;47.974;7.824;2023-08-30T13:13:03;21.40;99.90
8214;DHT22;4148;47.974;7.824;2023-08-30T13:15:31;21.30;99.90
8214;DHT22;4148;47.974;7.824;2023-08-30T13:17:59;21.20;99.90
8214;DHT22;4148;47.974;7.824;2023-08-30T13:20:27;21.20;99.90
8214;DHT22;4148;47.974;7.824;2023-08-30T13:22:55;21.30;99.90
8214;DHT22;4148;47.974;7.824;2023-08-30T13:25:22;21.40;99.90
8214;DHT22;4148;47.974;7.824;2023-08-30T13:27:53;21.70;99.90
8214;DHT22;4148;47.974;7.824;2023-08-30T13:30:21;21.80;99.90
8214;DHT22;4148;47.974;7.824;2023-08-30T13:32:49;21.90;99.90
8214;DHT22;4148;47.974;7.824;2023-08-30T13:35:17;22.00;99.90
8214;DHT22;4148;47.974;7.824;2023-08-30T13:37:44;21.90;99.90
8214;DHT22;4148;47.974;7.824;2023-08-30T13:40:12;21.90;99.90
8214;DHT22;4148;47.974;7.824;2023-08-30T13:42:40;21.80;99.90
8214;DHT22;4148;47.974;7.824;2023-08-30T13:45:10;21.80;99.90
8214;DHT22;4148;47.974;7.824;2023-08-30T13:47:38;21.90;99.90
8214;DHT22;4148;47.974;7.824;2023-08-30T13:50:07;21.90;99.90
8214;DHT22;4148;47.974;7.824;2023-08-30T13:52:35;21.90;99.90
8214;DHT22;4148;47.974;7.824;2023-08-30T13:55:03;21.80;99.90
8214;DHT22;4148;47.974;7.824;2023-08-30T13:57:31;21.70;99.90
8214;DHT22;4148;47.974;7.824;2023-08-30T13:59:59;21.70;99.90
8214;DHT22;4148;47.974;7.824;2023-08-30T14:02:31;21.60;99.90
8214;DHT22;4148;47.974;7.824;2023-08-30T14:05:00;21.60;99.90
8214;DHT22;4148;47.974;7.824;2023-08-30T14:07:28;21.60;99.90
8214;DHT22;4148;47.974;7.824;2023-08-30T14:09:56;21.50;99.90
8214;DHT22;4148;47.974;7.824;2023-08-30T14:12:24;21.40;99.90
8214;DHT22;4148;47.974;7.824;2023-08-30T14:14:52;21.40;99.90
8214;DHT22;4148;47.974;7.824;2023-08-30T14:17:19;21.30;99.90
8214;DHT22;4148;47.974;7.824;2023-08-30T14:19:51;21.20;99.90
8214;DHT22;4148;47.974;7.824;2023-08-30T14:22:19;21.10;99.90
8214;DHT22;4148;47.974;7.824;2023-08-30T14:24:47;21.00;99.90
8214;DHT22;4148;47.974;7.824;2023-08-30T14:27:35;21.00;99.90
8214;DHT22;4148;47.974;7.824;2023-08-30T14:30:03;20.90;99.90
8214;DHT22;4148;47.974;7.824;2023-08-30T14:32:31;20.70;99.90
8214;DHT22;4148;47.974;7.824;2023-08-30T14:35:02;20.60;99.90
8214;DHT22;4148;47.974;7.824;2023-08-30T14:37:30;20.50;99.90
8214;DHT22;4148;47.974;7.824;2023-08-30T14:39:58;20.50;99.90
8214;DHT22;4148;47.974;7.824;2023-08-30T14:42:26;20.40;99.90
8214;DHT22;4148;47.974;7.824;2023-08-30T14:44:54;20.30;99.90
8214;DHT22;4148;47.974;7.824;2023-08-30T14:47:22;20.20;1.00
8214;DHT22;4148;47.974;7.824;2023-08-30T14:49:50;20.10;1.00
8214;DHT22;4148;47.974;7.824;2023-08-30T14:52:19;20.10;1.00
8214;DHT22;4148;47.974;7.824;2023-08-30T14:54:47;20.10;1.00
8214;DHT22;4148;47.974;7.824;2023-08-30T14:57:15;20.10;1.00
8214;DHT22;4148;47.974;7.824;2023-08-30T14:59:42;20.10;1.00
8214;DHT22;4148;47.974;7.824;2023-08-30T15:02:10;20.20;1.00
8214;DHT22;4148;47.974;7.824;2023-08-30T15:04:39;20.20;1.00
8214;DHT22;4148;47.974;7.824;2023-08-30T15:07:07;20.30;1.00
8214;DHT22;4148;47.974;7.824;2023-08-30T15:09:37;20.30;99.90
8214;DHT22;4148;47.974;7.824;2023-08-30T15:12:06;20.30;99.90
8214;DHT22;4148;47.974;7.824;2023-08-30T15:14:34;20.30;99.90
8214;DHT22;4148;47.974;7.824;2023-08-30T15:17:02;20.20;99.90
8214;DHT22;4148;47.974;7.824;2023-08-30T15:19:30;20.20;1.00
8214;DHT22;4148;47.974;7.824;2023-08-30T15:21:58;20.10;99.90
8214;DHT22;4148;47.974;7.824;2023-08-30T15:24:26;20.00;1.00
8214;DHT22;4148;47.974;7.824;2023-08-30T15:26:55;20.00;1.00
8214;DHT22;4148;47.974;7.824;2023-08-30T15:29:23;20.10;1.00
8214;DHT22;4148;47.974;7.824;2023-08-30T15:31:51;20.20;1.00
8214;DHT22;4148;47.974;7.824;2023-08-30T15:34:20;20.20;1.00
8214;DHT22;4148;47.974;7.824;2023-08-30T15:36:48;20.20;1.00
8214;DHT22;4148;47.974;7.824;2023-08-30T15:39:15;20.20;1.00
8214;DHT22;4148;47.974;7.824;2023-08-30T15:41:45;20.30;1.00
8214;DHT22;4148;47.974;7.824;2023-08-30T15:44:14;20.40;1.00
8214;DHT22;4148;47.974;7.824;2023-08-30T15:46:42;20.50;99.90
8214;DHT22;4148;47.974;7.824;2023-08-30T15:49:10;20.50;99.90
8214;DHT22;4148;47.974;7.824;2023-08-30T15:51:38;20.50;99.90
8214;DHT22;4148;47.974;7.824;2023-08-30T15:54:06;20.50;99.90
8214;DHT22;4148;47.974;7.824;2023-08-30T15:56:34;20.50;99.90
8214;DHT22;4148;47.974;7.824;2023-08-30T15:59:03;20.50;99.90
8214;DHT22;4148;47.974;7.824;2023-08-30T16:01:32;20.50;99.90
8214;DHT22;4148;47.974;7.824;2023-08-30T16:04:00;20.50;99.90
8214;DHT22;4148;47.974;7.824;2023-08-30T16:06:28;20.50;99.90
8214;DHT22;4148;47.974;7.824;2023-08-30T16:08:56;20.40;99.90
8214;DHT22;4148;47.974;7.824;2023-08-30T16:11:24;20.30;99.90
8214;DHT22;4148;47.974;7.824;2023-08-30T16:13:52;20.30;99.90
8214;DHT22;4148;47.974;7.824;2023-08-30T16:16:20;20.30;99.90
8214;DHT22;4148;47.974;7.824;2023-08-30T16:18:49;20.20;99.90
8214;DHT22;4148;47.974;7.824;2023-08-30T16:21:17;20.20;99.90
8214;DHT22;4148;47.974;7.824;2023-08-30T16:23:45;20.20;99.90